Time;durP1;ratioP1;P1;durP2;ratioP2;P2;SDS_P1;SDS_P2;PMS_P1;PMS_P2;Temp;Humidity;BMP_temperature;BMP_pressure;BME280_temperature;BME280_humidity;BME280_pressure;Samples;Min_cycle;Max_cycle;Signal;HPM_P1;HPM_P2
2022/09/29 00:01:43;;;;;;;4.60;3.50;;;15.40;89.20;;;;;;5070657;28;20089;-62
2022/09/29 00:04:09;;;;;;;4.18;3.45;;;15.40;89.00;;;;;;5072830;28;20029;-62
2022/09/29 00:06:35;;;;;;;4.45;3.55;;;15.40;89.00;;;;;;5071293;28;20471;-61
2022/09/29 00:09:00;;;;;;;5.75;3.25;;;15.40;88.80;;;;;;5072188;28;20078;-61
2022/09/29 00:11:27;;;;;;;5.55;4.18;;;15.30;88.70;;;;;;5073001;28;20052;-61
2022/09/29 00:13:53;;;;;;;5.65;3.88;;;15.30;88.50;;;;;;5070449;28;20476;-62
2022/09/29 00:16:19;;;;;;;5.35;3.97;;;15.30;88.40;;;;;;5057365;28;20013;-61
2022/09/29 00:18:45;;;;;;;4.88;3.42;;;15.30;88.30;;;;;;5069473;28;20454;-62
2022/09/29 00:21:18;;;;;;;4.70;3.60;;;15.30;88.10;;;;;;5072137;28;20024;-61
2022/09/29 00:23:44;;;;;;;4.80;3.33;;;15.30;88.00;;;;;;5070645;28;20111;-62
2022/09/29 00:26:22;;;;;;;4.90;3.45;;;15.20;87.90;;;;;;5071755;28;20021;-62
2022/09/29 00:28:57;;;;;;;4.13;3.40;;;15.20;87.80;;;;;;5060384;28;20031;-62
2022/09/29 00:31:25;;;;;;;4.28;3.00;;;15.20;87.60;;;;;;5071088;28;20082;-61
2022/09/29 00:33:51;;;;;;;4.03;3.30;;;15.20;87.50;;;;;;5067926;28;20020;-62
2022/09/29 00:36:19;;;;;;;4.72;3.40;;;15.10;88.00;;;;;;5071932;28;20031;-61
2022/09/29 00:38:46;;;;;;;4.10;3.28;;;15.10;87.30;;;;;;5080005;28;20028;-62
2022/09/29 00:41:33;;;;;;;4.03;3.40;;;15.10;87.30;;;;;;5071741;28;20079;-61
2022/09/29 00:44:01;;;;;;;4.53;3.35;;;15.00;87.10;;;;;;5066963;28;20531;-62
2022/09/29 00:46:40;;;;;;;3.85;3.22;;;15.00;87.10;;;;;;5071144;28;20052;-62
2022/09/29 00:49:32;;;;;;;3.90;3.50;;;15.00;87.00;;;;;;5061462;28;20059;-61
2022/09/29 00:52:08;;;;;;;4.22;3.25;;;15.00;87.00;;;;;;5067801;28;20315;-62
2022/09/29 00:54:41;;;;;;;3.05;2.78;;;14.90;86.90;;;;;;5072195;28;20480;-61
2022/09/29 00:57:10;;;;;;;3.42;2.90;;;14.90;86.90;;;;;;5075248;28;20480;-62
2022/09/29 00:59:51;;;;;;;3.25;2.70;;;14.90;86.90;;;;;;5060515;28;20111;-61
2022/09/29 01:02:19;;;;;;;2.70;2.42;;;14.90;86.80;;;;;;5084058;28;20118;-61
2022/09/29 01:04:50;;;;;;;3.10;2.70;;;14.90;86.70;;;;;;5071089;28;20029;-61
2022/09/29 01:07:16;;;;;;;3.30;3.00;;;14.90;86.60;;;;;;5069393;28;21345;-61
2022/09/29 01:09:43;;;;;;;3.53;2.95;;;14.80;86.30;;;;;;5070969;28;20035;-62
2022/09/29 01:12:09;;;;;;;5.00;2.90;;;14.80;86.00;;;;;;5074238;28;20029;-62
2022/09/29 01:14:37;;;;;;;3.33;3.03;;;14.70;86.00;;;;;;5069364;28;20082;-61
2022/09/29 01:17:04;;;;;;;3.72;2.72;;;14.70;86.10;;;;;;5070353;28;20028;-61
2022/09/29 01:19:59;;;;;;;3.35;2.83;;;14.60;86.10;;;;;;5075444;28;20029;-61
2022/09/29 01:22:47;;;;;;;2.97;2.60;;;14.60;86.20;;;;;;5066634;28;20028;-61
2022/09/29 01:25:31;;;;;;;3.65;2.72;;;14.60;86.30;;;;;;5065370;28;20037;-61
2022/09/29 01:28:28;;;;;;;4.20;2.85;;;14.60;86.30;;;;;;5067944;28;20106;-61
2022/09/29 01:31:27;;;;;;;3.13;2.83;;;14.60;86.30;;;;;;5069202;28;20031;-61
2022/09/29 01:34:17;;;;;;;3.20;2.80;;;14.60;86.10;;;;;;5066831;28;20020;-61
2022/09/29 01:37:00;;;;;;;3.47;3.03;;;14.60;86.10;;;;;;5069851;28;20024;-61
2022/09/29 01:39:42;;;;;;;3.90;2.60;;;14.60;86.00;;;;;;5063878;28;20033;-61
2022/09/29 01:42:18;;;;;;;3.92;3.08;;;14.60;85.90;;;;;;5069226;28;20047;-62
2022/09/29 01:44:56;;;;;;;3.70;2.80;;;14.60;85.80;;;;;;5070879;28;20029;-61
2022/09/29 01:47:27;;;;;;;3.10;2.80;;;14.50;85.60;;;;;;5070298;28;20036;-61
2022/09/29 01:50:01;;;;;;;3.47;2.97;;;14.50;85.50;;;;;;5070227;28;20070;-61
2022/09/29 01:52:33;;;;;;;3.38;2.65;;;14.50;85.50;;;;;;5068121;28;20024;-62
2022/09/29 01:55:06;;;;;;;3.90;3.00;;;14.50;85.50;;;;;;5068875;28;20035;-62
2022/09/29 01:57:45;;;;;;;3.60;2.85;;;14.50;85.40;;;;;;5068603;28;20157;-61
2022/09/29 02:00:13;;;;;;;3.17;2.58;;;14.50;86.00;;;;;;5065927;28;20376;-61
2022/09/29 02:03:07;;;;;;;3.33;2.70;;;14.40;85.30;;;;;;5071284;28;20094;-62
2022/09/29 02:05:37;;;;;;;3.25;2.85;;;14.30;85.20;;;;;;5056080;28;20043;-61
2022/09/29 02:08:13;;;;;;;3.05;2.70;;;14.30;85.50;;;;;;5067922;28;20036;-61
2022/09/29 02:10:47;;;;;;;3.20;2.85;;;14.30;85.60;;;;;;5066941;28;20058;-61
2022/09/29 02:13:14;;;;;;;3.25;2.75;;;14.20;85.50;;;;;;5075097;28;20044;-61
2022/09/29 02:15:45;;;;;;;2.67;2.47;;;14.20;85.50;;;;;;5071825;28;20025;-63
2022/09/29 02:18:20;;;;;;;3.10;2.80;;;14.20;85.50;;;;;;5070455;28;20123;-61
2022/09/29 02:20:47;;;;;;;4.05;3.10;;;14.10;85.50;;;;;;5074108;28;20392;-61
2022/09/29 02:23:13;;;;;;;3.70;2.95;;;14.10;85.60;;;;;;5074757;28;20044;-61
2022/09/29 02:25:40;;;;;;;3.28;2.78;;;14.10;85.70;;;;;;5070660;28;20068;-61
2022/09/29 02:28:06;;;;;;;3.00;2.70;;;14.10;85.80;;;;;;5073869;28;20043;-61
2022/09/29 02:30:33;;;;;;;2.90;2.65;;;14.10;85.70;;;;;;5073765;28;20025;-61
2022/09/29 02:32:59;;;;;;;3.58;2.88;;;14.10;85.80;;;;;;5073847;28;20111;-62
2022/09/29 02:35:42;;;;;;;4.05;2.72;;;14.10;85.80;;;;;;5073038;28;20064;-62
2022/09/29 02:38:23;;;;;;;2.92;2.63;;;14.20;85.90;;;;;;5076128;28;20090;-61
2022/09/29 02:40:55;;;;;;;3.15;2.80;;;14.20;85.80;;;;;;5062412;28;20119;-62
2022/09/29 02:44:09;;;;;;;3.05;2.58;;;14.20;85.90;;;;;;5072791;28;20021;-61
2022/09/29 02:46:53;;;;;;;3.20;2.90;;;14.20;85.60;;;;;;5068526;28;20040;-61
2022/09/29 02:49:46;;;;;;;3.35;2.55;;;14.30;85.60;;;;;;5072671;28;20462;-61
2022/09/29 02:52:15;;;;;;;3.72;2.70;;;14.30;85.40;;;;;;5074007;28;20017;-61
2022/09/29 02:54:52;;;;;;;3.35;2.83;;;14.30;85.20;;;;;;5076555;28;20064;-62
2022/09/29 02:57:43;;;;;;;2.92;2.63;;;14.30;85.10;;;;;;5071503;28;20020;-61
2022/09/29 03:00:10;;;;;;;3.10;2.70;;;14.30;84.90;;;;;;5071487;28;20024;-61
2022/09/29 03:02:38;;;;;;;3.75;2.88;;;14.30;85.00;;;;;;5073827;28;20401;-61
2022/09/29 03:05:07;;;;;;;3.15;2.80;;;14.30;85.00;;;;;;5072484;28;20486;-62
2022/09/29 03:07:33;;;;;;;3.00;2.80;;;14.30;84.90;;;;;;5072396;28;20086;-61
2022/09/29 03:09:59;;;;;;;3.40;2.72;;;14.30;84.90;;;;;;5071036;28;20626;-61
2022/09/29 03:12:24;;;;;;;2.60;2.40;;;14.30;84.90;;;;;;5073466;28;20025;-61
2022/09/29 03:14:50;;;;;;;2.78;2.58;;;14.30;84.90;;;;;;5071457;28;20021;-61
2022/09/29 03:17:16;;;;;;;3.45;2.72;;;14.30;85.00;;;;;;5072472;28;20107;-62
2022/09/29 03:19:41;;;;;;;3.75;2.90;;;14.30;85.00;;;;;;5072721;28;20044;-62
2022/09/29 03:22:07;;;;;;;3.90;2.85;;;14.30;85.10;;;;;;5073100;28;20071;-61
2022/09/29 03:24:33;;;;;;;3.15;2.85;;;14.40;85.00;;;;;;5072051;28;20036;-61
2022/09/29 03:26:58;;;;;;;2.97;2.67;;;14.40;84.90;;;;;;5071830;28;20403;-62
2022/09/29 03:29:24;;;;;;;2.92;2.58;;;14.40;84.80;;;;;;5064154;28;20067;-62
2022/09/29 03:31:49;;;;;;;3.40;2.85;;;14.40;84.60;;;;;;5065303;28;20076;-61
2022/09/29 03:34:15;;;;;;;3.80;2.83;;;14.40;84.50;;;;;;5072250;28;20361;-63
2022/09/29 03:36:41;;;;;;;3.25;2.78;;;14.40;84.40;;;;;;5069902;28;20033;-62
2022/09/29 03:39:07;;;;;;;2.88;2.55;;;14.40;84.50;;;;;;5071167;28;20028;-62
2022/09/29 03:41:32;;;;;;;3.17;2.53;;;14.40;84.50;;;;;;5070975;28;20063;-62
2022/09/29 03:43:58;;;;;;;3.17;2.60;;;14.40;84.50;;;;;;5070314;28;20025;-61
2022/09/29 03:46:24;;;;;;;3.55;2.85;;;14.40;84.50;;;;;;5065733;28;20028;-61
2022/09/29 03:48:49;;;;;;;4.05;3.10;;;14.40;84.40;;;;;;5070760;28;20475;-61
2022/09/29 03:51:15;;;;;;;2.83;2.55;;;14.40;84.40;;;;;;5071424;28;20021;-63
2022/09/29 03:53:41;;;;;;;3.15;2.85;;;14.40;84.40;;;;;;5072649;28;20383;-62
2022/09/29 03:56:06;;;;;;;3.65;2.85;;;14.40;84.30;;;;;;5066007;28;20024;-62
2022/09/29 03:58:32;;;;;;;2.75;2.45;;;14.40;84.40;;;;;;5070781;28;20075;-61
2022/09/29 04:00:58;;;;;;;3.08;2.80;;;14.40;84.40;;;;;;5064005;28;20040;-61
2022/09/29 04:03:24;;;;;;;3.78;3.08;;;14.40;84.40;;;;;;5080180;28;20039;-61
2022/09/29 04:05:50;;;;;;;3.42;2.97;;;14.40;84.40;;;;;;5068878;28;20059;-61
2022/09/29 04:08:16;;;;;;;3.85;2.97;;;14.40;84.50;;;;;;5070026;28;20052;-62
2022/09/29 04:10:44;;;;;;;3.88;3.17;;;14.40;84.40;;;;;;5063827;28;20449;-61
2022/09/29 04:13:10;;;;;;;4.65;2.97;;;14.40;84.30;;;;;;5059424;28;20056;-61
2022/09/29 04:15:35;;;;;;;4.07;3.30;;;14.40;84.40;;;;;;5068811;28;20554;-61
2022/09/29 04:18:01;;;;;;;3.78;3.25;;;14.40;84.30;;;;;;5068875;28;20028;-62
2022/09/29 04:20:27;;;;;;;3.88;3.13;;;14.50;84.30;;;;;;5069168;28;20035;-61
2022/09/29 04:22:52;;;;;;;4.80;3.60;;;14.50;84.20;;;;;;5070069;28;20031;-62
2022/09/29 04:25:18;;;;;;;4.25;3.40;;;14.50;84.00;;;;;;5062192;28;20491;-61
2022/09/29 04:27:44;;;;;;;3.67;3.17;;;14.50;84.00;;;;;;5069346;28;20565;-61
2022/09/29 04:30:10;;;;;;;4.13;3.47;;;14.60;83.90;;;;;;5068155;28;20025;-64
2022/09/29 04:32:36;;;;;;;4.78;3.53;;;14.60;84.00;;;;;;5069283;28;20034;-62
2022/09/29 04:35:03;;;;;;;4.82;3.50;;;14.60;83.90;;;;;;5069657;28;20025;-61
2022/09/29 04:37:28;;;;;;;4.47;3.47;;;14.60;83.80;;;;;;5068321;28;20031;-61
2022/09/29 04:39:54;;;;;;;4.25;3.08;;;14.60;83.90;;;;;;5071581;28;20028;-61
2022/09/29 04:42:20;;;;;;;4.10;3.30;;;14.60;83.80;;;;;;5070691;28;20080;-61
2022/09/29 04:44:46;;;;;;;4.70;3.67;;;14.60;83.70;;;;;;5071629;28;20103;-61
2022/09/29 04:47:12;;;;;;;4.18;3.28;;;14.60;83.90;;;;;;5070552;28;20029;-61
2022/09/29 04:49:38;;;;;;;4.88;3.53;;;14.60;84.00;;;;;;5071558;28;20733;-63
2022/09/29 04:52:04;;;;;;;4.57;3.50;;;14.70;84.00;;;;;;5065182;28;20362;-61
2022/09/29 04:54:34;;;;;;;4.03;3.30;;;14.70;84.10;;;;;;5070851;28;20372;-61
2022/09/29 04:57:00;;;;;;;4.55;3.67;;;14.80;84.10;;;;;;5069585;28;20112;-62
2022/09/29 04:59:26;;;;;;;4.07;3.58;;;14.90;84.10;;;;;;5071253;28;20527;-61
2022/09/29 05:01:52;;;;;;;4.32;3.50;;;15.00;84.00;;;;;;5064152;28;20441;-61
2022/09/29 05:04:18;;;;;;;4.18;3.15;;;15.00;83.90;;;;;;5071208;28;20445;-62
2022/09/29 05:06:44;;;;;;;5.40;3.70;;;15.10;83.80;;;;;;5066902;28;20566;-61
2022/09/29 05:09:09;;;;;;;4.60;3.78;;;15.10;83.50;;;;;;5059100;28;20036;-61
2022/09/29 05:11:35;;;;;;;5.13;3.80;;;15.20;83.30;;;;;;5075569;28;20036;-61
2022/09/29 05:14:01;;;;;;;5.10;3.72;;;15.30;83.70;;;;;;5068487;28;20480;-62
2022/09/29 05:16:26;;;;;;;4.20;3.75;;;15.30;82.80;;;;;;5079248;28;20032;-61
2022/09/29 05:18:52;;;;;;;4.53;4.13;;;15.40;82.90;;;;;;5075789;28;20017;-62
2022/09/29 05:21:18;;;;;;;5.53;3.92;;;15.40;82.70;;;;;;5075006;28;20095;-61
2022/09/29 05:23:43;;;;;;;4.82;3.80;;;15.50;82.40;;;;;;5081095;28;20063;-65
2022/09/29 05:26:11;;;;;;;4.35;3.67;;;15.50;82.20;;;;;;5085148;28;20032;-63
2022/09/29 05:28:38;;;;;;;4.38;3.60;;;15.50;82.10;;;;;;5088460;28;20039;-62
2022/09/29 05:31:06;;;;;;;4.68;3.65;;;15.50;82.00;;;;;;5084718;28;20046;-62
2022/09/29 05:33:33;;;;;;;4.40;3.85;;;15.50;82.00;;;;;;5089375;28;20052;-64
2022/09/29 05:35:59;;;;;;;4.18;3.63;;;15.50;81.90;;;;;;5090229;28;20027;-62
2022/09/29 05:38:25;;;;;;;3.88;3.40;;;15.50;82.00;;;;;;5081639;28;20055;-64
2022/09/29 05:40:51;;;;;;;3.58;3.28;;;15.50;81.90;;;;;;5089244;28;20052;-63
2022/09/29 05:43:18;;;;;;;4.40;3.67;;;15.60;81.90;;;;;;5086504;28;20036;-62
2022/09/29 05:45:44;;;;;;;4.38;3.58;;;15.60;81.80;;;;;;5086233;28;20100;-63
2022/09/29 05:48:10;;;;;;;5.30;3.85;;;15.60;81.80;;;;;;5085635;28;20033;-62
2022/09/29 05:50:42;;;;;;;4.90;4.18;;;15.70;81.90;;;;;;5077960;28;20025;-63
2022/09/29 05:53:08;;;;;;;4.63;3.95;;;15.70;81.90;;;;;;5081144;28;20025;-63
2022/09/29 05:55:38;;;;;;;5.18;4.35;;;15.80;82.80;;;;;;5075156;28;20044;-63
2022/09/29 05:58:05;;;;;;;6.28;4.18;;;16.10;83.10;;;;;;5084545;28;20021;-65
2022/09/29 06:00:32;;;;;;;4.85;4.25;;;16.50;82.70;;;;;;5083228;28;20024;-63
2022/09/29 06:02:58;;;;;;;4.30;3.63;;;16.90;81.50;;;;;;5088202;28;20027;-64
2022/09/29 06:05:24;;;;;;;3.70;3.20;;;17.20;80.90;;;;;;5086978;28;20027;-61
2022/09/29 06:07:51;;;;;;;3.42;3.00;;;17.60;80.30;;;;;;5084955;28;20076;-62
2022/09/29 06:10:17;;;;;;;3.88;2.90;;;17.90;79.30;;;;;;5087071;28;20080;-64
2022/09/29 06:12:43;;;;;;;3.30;3.00;;;18.10;78.40;;;;;;5084897;28;20021;-62
2022/09/29 06:15:10;;;;;;;3.55;2.83;;;18.30;77.40;;;;;;5077494;28;20005;-63
2022/09/29 06:17:36;;;;;;;3.65;3.08;;;18.40;76.50;;;;;;5079796;28;20039;-62
2022/09/29 06:20:03;;;;;;;4.32;3.20;;;18.40;76.00;;;;;;5081269;28;20080;-64
2022/09/29 06:22:29;;;;;;;3.88;3.20;;;18.30;75.90;;;;;;5079195;28;20060;-63
2022/09/29 06:24:55;;;;;;;4.43;3.17;;;18.20;75.80;;;;;;5072146;28;20062;-61
2022/09/29 06:27:21;;;;;;;4.85;3.50;;;18.10;76.00;;;;;;5080599;28;20032;-61
2022/09/29 06:29:46;;;;;;;4.03;3.05;;;17.90;76.10;;;;;;5071216;28;20039;-65
2022/09/29 06:32:12;;;;;;;3.13;2.83;;;17.80;76.40;;;;;;5076999;28;20041;-62
2022/09/29 06:37:33;;;;;;;3.78;3.30;;;17.70;77.20;;;;;;5076088;28;20024;-62
2022/09/29 06:37:34;;;;;;;4.78;3.50;;;17.60;76.90;;;;;;5077743;28;20030;-61
2022/09/29 06:40:01;;;;;;;4.18;3.30;;;17.50;77.20;;;;;;5077534;28;20047;-66
2022/09/29 06:42:27;;;;;;;5.13;3.63;;;17.40;77.40;;;;;;5078878;28;20039;-64
2022/09/29 06:44:53;;;;;;;4.25;3.33;;;17.30;77.60;;;;;;5079754;28;20115;-64
2022/09/29 06:47:19;;;;;;;3.42;3.00;;;17.30;77.60;;;;;;5078597;28;20031;-66
2022/09/29 06:49:45;;;;;;;3.42;2.88;;;17.20;77.60;;;;;;5080351;28;20095;-64
2022/09/29 06:52:10;;;;;;;4.30;3.38;;;17.20;77.80;;;;;;5075657;28;20035;-66
2022/09/29 06:54:36;;;;;;;3.00;2.70;;;17.10;77.90;;;;;;5077089;28;20486;-64
2022/09/29 06:57:02;;;;;;;3.13;2.80;;;17.20;78.10;;;;;;5085568;28;20047;-64
2022/09/29 06:59:27;;;;;;;3.20;2.90;;;17.20;78.30;;;;;;5087241;28;20039;-64
2022/09/29 07:01:53;;;;;;;3.45;2.75;;;17.20;78.50;;;;;;5083884;28;20077;-64
2022/09/29 07:04:20;;;;;;;2.70;2.50;;;17.20;78.60;;;;;;5084353;28;20044;-65
2022/09/29 07:06:46;;;;;;;2.88;2.60;;;17.20;78.40;;;;;;5084533;28;20043;-65
2022/09/29 07:09:14;;;;;;;4.25;3.28;;;17.20;78.30;;;;;;5080793;28;20264;-63
2022/09/29 07:11:45;;;;;;;3.30;3.00;;;17.20;78.30;;;;;;5082531;28;20048;-63
2022/09/29 07:14:15;;;;;;;2.60;2.40;;;17.20;78.30;;;;;;5077875;28;20034;-66
2022/09/29 07:16:41;;;;;;;3.63;2.70;;;17.20;78.30;;;;;;5072466;28;20399;-66
2022/09/29 07:19:07;;;;;;;3.00;2.65;;;17.20;78.30;;;;;;5075245;28;20024;-64
2022/09/29 07:21:33;;;;;;;3.35;2.92;;;17.20;78.30;;;;;;5073331;28;20024;-65
2022/09/29 07:23:59;;;;;;;3.38;2.95;;;17.20;78.30;;;;;;5077605;28;20456;-65
2022/09/29 07:26:24;;;;;;;3.28;2.88;;;17.20;78.30;;;;;;5069887;28;19997;-66
2022/09/29 07:28:50;;;;;;;4.03;3.60;;;17.20;78.30;;;;;;5075728;28;20032;-65
2022/09/29 07:31:18;;;;;;;3.60;3.10;;;17.10;78.00;;;;;;5064150;28;20035;-65
2022/09/29 07:33:45;;;;;;;4.28;3.40;;;17.10;77.90;;;;;;5065836;28;20039;-65
2022/09/29 07:36:13;;;;;;;6.13;4.95;;;17.00;78.10;;;;;;5061441;28;20037;-66
2022/09/29 07:38:39;;;;;;;7.30;5.10;;;16.90;78.10;;;;;;5072270;28;20031;-65
2022/09/29 07:41:10;;;;;;;8.75;4.93;;;16.90;78.30;;;;;;5080331;28;20041;-66
2022/09/29 07:43:36;;;;;;;7.80;5.95;;;16.80;78.50;;;;;;5077241;28;20071;-65
2022/09/29 07:46:03;;;;;;;7.40;5.82;;;16.70;78.60;;;;;;5082313;28;20310;-66
2022/09/29 07:48:30;;;;;;;9.60;7.55;;;16.60;78.80;;;;;;5085609;28;20048;-62
2022/09/29 07:51:08;;;;;;;9.15;6.97;;;16.50;78.90;;;;;;5077641;28;20095;-65
2022/09/29 07:53:35;;;;;;;8.98;6.53;;;16.30;79.10;;;;;;5080313;28;20048;-66
2022/09/29 07:56:07;;;;;;;8.63;6.63;;;16.20;79.50;;;;;;5075637;28;20024;-66
2022/09/29 07:58:33;;;;;;;9.13;7.25;;;16.10;79.80;;;;;;5071668;28;20037;-65
2022/09/29 08:01:02;;;;;;;8.48;6.90;;;16.10;80.30;;;;;;5066202;28;20045;-66
2022/09/29 08:03:29;;;;;;;8.77;7.20;;;16.00;80.40;;;;;;5065325;28;20044;-66
2022/09/29 08:05:56;;;;;;;7.32;6.03;;;15.90;81.20;;;;;;5071683;28;20029;-63
2022/09/29 08:08:23;;;;;;;9.40;6.32;;;15.90;80.80;;;;;;5073197;28;20044;-65
2022/09/29 08:10:49;;;;;;;7.63;6.25;;;15.80;81.10;;;;;;5074134;28;20039;-64
2022/09/29 08:13:14;;;;;;;7.43;5.97;;;15.90;81.30;;;;;;5072947;28;20036;-65
2022/09/29 08:15:40;;;;;;;7.10;5.55;;;15.80;81.40;;;;;;5069699;28;20040;-65
2022/09/29 08:18:05;;;;;;;9.40;7.25;;;15.80;81.60;;;;;;5071220;28;20028;-66
2022/09/29 08:20:33;;;;;;;7.50;5.75;;;15.80;81.60;;;;;;5074356;28;20041;-63
2022/09/29 08:22:59;;;;;;;6.72;5.55;;;15.80;81.50;;;;;;5073474;28;20108;-64
2022/09/29 08:25:25;;;;;;;5.82;4.80;;;15.70;82.20;;;;;;5077300;28;20052;-65
2022/09/29 08:27:51;;;;;;;5.63;4.63;;;15.70;81.70;;;;;;5074679;28;20151;-65
2022/09/29 08:30:17;;;;;;;5.13;4.28;;;15.80;82.20;;;;;;5075659;28;20059;-66
2022/09/29 08:32:49;;;;;;;5.88;4.68;;;15.80;82.40;;;;;;5073046;28;20029;-65
2022/09/29 08:35:15;;;;;;;5.43;4.35;;;15.80;82.20;;;;;;5069624;28;20021;-65
2022/09/29 08:37:40;;;;;;;6.63;5.22;;;15.90;82.00;;;;;;5072276;28;20441;-65
2022/09/29 08:40:07;;;;;;;4.57;4.05;;;15.90;81.90;;;;;;5079605;28;20028;-62
2022/09/29 08:42:54;;;;;;;4.95;4.10;;;15.90;81.70;;;;;;5077386;28;20045;-62
2022/09/29 08:45:34;;;;;;;4.93;3.95;;;15.90;81.70;;;;;;5072013;28;20028;-65
2022/09/29 08:48:21;;;;;;;4.68;4.13;;;16.00;82.00;;;;;;5069854;28;20033;-64
2022/09/29 08:51:11;;;;;;;5.25;4.28;;;16.00;81.90;;;;;;5081423;28;20021;-65
2022/09/29 08:53:43;;;;;;;4.80;3.90;;;16.00;81.90;;;;;;5077418;28;20035;-64
2022/09/29 08:56:16;;;;;;;6.65;4.95;;;16.10;81.90;;;;;;5082103;28;20039;-65
2022/09/29 08:58:42;;;;;;;5.45;4.70;;;16.10;81.40;;;;;;5076894;28;20043;-65
2022/09/29 09:01:26;;;;;;;4.72;3.83;;;16.10;81.10;;;;;;5078061;28;20036;-63
2022/09/29 09:03:58;;;;;;;4.85;4.00;;;16.10;81.20;;;;;;5069912;28;20120;-66
2022/09/29 09:06:59;;;;;;;4.32;3.92;;;16.10;81.50;;;;;;5072713;28;20080;-64
2022/09/29 09:09:33;;;;;;;5.03;4.38;;;16.10;81.50;;;;;;5064910;28;20099;-65
2022/09/29 09:12:32;;;;;;;5.20;4.03;;;16.00;81.60;;;;;;5072808;28;20040;-65
2022/09/29 09:15:03;;;;;;;5.95;4.65;;;16.10;81.60;;;;;;5067405;28;20037;-66
2022/09/29 09:18:03;;;;;;;6.75;5.00;;;16.00;81.60;;;;;;5069288;28;20027;-65
2022/09/29 09:20:43;;;;;;;6.00;4.93;;;16.00;81.50;;;;;;5068611;28;20457;-66
2022/09/29 09:23:21;;;;;;;6.18;4.63;;;15.90;81.90;;;;;;5066067;28;20095;-64
2022/09/29 09:25:56;;;;;;;5.05;4.50;;;15.90;82.10;;;;;;5068990;28;20128;-65
2022/09/29 09:28:48;;;;;;;5.25;4.47;;;15.90;82.40;;;;;;5067178;28;20040;-63
2022/09/29 09:31:14;;;;;;;6.15;4.75;;;15.80;82.20;;;;;;5065440;28;20036;-66
2022/09/29 09:33:46;;;;;;;6.28;5.13;;;15.80;82.30;;;;;;5075013;28;20028;-64
2022/09/29 09:36:38;;;;;;;6.80;5.50;;;15.80;82.40;;;;;;5072497;28;20041;-64
2022/09/29 09:39:14;;;;;;;6.20;4.93;;;15.70;82.30;;;;;;5070508;28;20025;-66
2022/09/29 09:41:44;;;;;;;7.47;5.70;;;15.70;82.60;;;;;;5074074;28;20040;-66
2022/09/29 09:44:14;;;;;;;7.03;5.88;;;15.70;82.80;;;;;;5069513;28;20143;-66
2022/09/29 09:46:40;;;;;;;7.50;6.07;;;15.70;83.00;;;;;;5068840;28;20033;-65
2022/09/29 09:49:17;;;;;;;8.50;6.60;;;15.60;82.90;;;;;;5078559;28;20028;-65
2022/09/29 09:51:42;;;;;;;9.43;7.03;;;15.60;83.10;;;;;;5079581;28;20025;-64
2022/09/29 09:54:16;;;;;;;9.70;7.22;;;15.60;83.30;;;;;;5072757;28;20029;-66
2022/09/29 09:57:14;;;;;;;7.97;6.75;;;15.50;83.40;;;;;;5070540;28;20122;-65
2022/09/29 09:59:55;;;;;;;7.10;6.00;;;15.50;83.50;;;;;;5045713;28;20063;-66
2022/09/29 10:02:22;;;;;;;7.82;6.18;;;15.40;83.40;;;;;;5074311;28;20104;-63
2022/09/29 10:04:51;;;;;;;8.73;7.00;;;15.40;83.90;;;;;;5071188;28;20044;-65
2022/09/29 10:07:19;;;;;;;9.15;7.65;;;15.40;84.10;;;;;;5068459;28;20029;-65
2022/09/29 10:09:45;;;;;;;9.18;6.85;;;15.40;84.30;;;;;;5070656;28;20017;-64
2022/09/29 10:12:16;;;;;;;9.93;7.88;;;15.40;84.70;;;;;;5075118;28;21105;-66
2022/09/29 10:14:51;;;;;;;10.60;7.53;;;15.50;84.80;;;;;;5070779;28;20073;-64
2022/09/29 10:17:19;;;;;;;11.27;7.97;;;15.50;84.90;;;;;;5074375;28;20082;-65
2022/09/29 10:20:11;;;;;;;10.73;8.25;;;15.50;85.00;;;;;;5072869;28;20047;-65
2022/09/29 10:22:38;;;;;;;11.15;7.60;;;15.50;84.90;;;;;;5077351;28;20047;-64
2022/09/29 10:25:19;;;;;;;9.20;6.63;;;15.50;85.00;;;;;;5078992;28;21291;-64
2022/09/29 10:27:51;;;;;;;9.57;7.70;;;15.60;85.20;;;;;;5080984;28;20024;-65
2022/09/29 10:30:37;;;;;;;9.80;7.43;;;15.60;85.30;;;;;;5075354;28;20107;-65
2022/09/29 10:33:05;;;;;;;9.05;7.15;;;15.60;85.20;;;;;;5074257;28;20043;-64
2022/09/29 10:35:39;;;;;;;7.35;5.75;;;15.70;85.60;;;;;;5075264;28;20020;-65
2022/09/29 10:38:25;;;;;;;7.93;6.10;;;15.70;85.90;;;;;;5070751;28;20374;-66
2022/09/29 10:40:57;;;;;;;6.95;5.25;;;15.80;86.10;;;;;;5075019;28;20004;-64
2022/09/29 10:43:35;;;;;;;6.78;5.35;;;15.90;86.20;;;;;;5072656;28;20352;-64
2022/09/29 10:46:01;;;;;;;6.80;5.00;;;15.90;85.80;;;;;;5068416;28;20021;-65
2022/09/29 10:48:27;;;;;;;7.32;5.65;;;15.90;85.60;;;;;;5065402;28;20028;-65
2022/09/29 10:50:56;;;;;;;7.45;6.10;;;15.90;85.40;;;;;;5071285;28;20028;-65
2022/09/29 10:53:40;;;;;;;6.95;5.88;;;15.90;85.50;;;;;;5075006;28;20052;-66
2022/09/29 10:56:21;;;;;;;7.82;6.35;;;15.90;85.30;;;;;;5080360;28;20040;-64
2022/09/29 10:58:56;;;;;;;8.07;6.27;;;15.90;85.70;;;;;;5077737;28;20099;-65
2022/09/29 11:01:22;;;;;;;6.43;5.15;;;15.80;85.90;;;;;;5070730;28;20035;-65
2022/09/29 11:04:02;;;;;;;7.30;5.70;;;15.80;86.90;;;;;;5066519;28;20098;-65
2022/09/29 11:06:33;;;;;;;6.95;5.78;;;15.80;86.50;;;;;;5071242;28;20035;-65
2022/09/29 11:09:21;;;;;;;8.20;6.75;;;15.90;86.70;;;;;;5069006;28;20080;-66
2022/09/29 11:11:47;;;;;;;7.47;6.45;;;15.90;86.50;;;;;;5072729;28;20096;-66
2022/09/29 11:14:36;;;;;;;7.32;6.07;;;15.90;86.70;;;;;;5070275;28;20024;-66
2022/09/29 11:17:51;;;;;;;8.18;6.97;;;15.90;86.70;;;;;;5067286;28;20048;-66
2022/09/29 11:20:17;;;;;;;7.60;6.22;;;15.90;86.70;;;;;;5043759;28;20051;-65
2022/09/29 11:23:14;;;;;;;8.02;6.78;;;15.90;86.90;;;;;;5073868;28;20039;-65
2022/09/29 11:25:51;;;;;;;8.23;6.30;;;15.90;87.00;;;;;;5074139;28;20128;-65
2022/09/29 11:28:19;;;;;;;7.57;6.72;;;15.90;87.20;;;;;;5079266;28;20879;-65
2022/09/29 11:30:54;;;;;;;8.38;6.85;;;16.00;87.10;;;;;;5074993;28;20017;-65
2022/09/29 11:34:13;;;;;;;8.20;6.65;;;16.00;86.90;;;;;;5073070;28;20677;-65
2022/09/29 11:37:06;;;;;;;9.10;7.25;;;16.00;86.90;;;;;;5076535;28;20137;-64
2022/09/29 11:39:51;;;;;;;8.20;7.07;;;16.00;87.00;;;;;;5074657;28;20024;-65
2022/09/29 11:42:39;;;;;;;9.77;7.75;;;16.00;87.20;;;;;;5056168;28;20679;-66
2022/09/29 11:45:09;;;;;;;10.05;8.27;;;16.10;87.30;;;;;;5078505;28;20024;-66
2022/09/29 11:47:51;;;;;;;8.82;7.47;;;16.10;87.40;;;;;;5076245;28;20025;-63
2022/09/29 11:50:29;;;;;;;10.82;7.97;;;16.00;87.40;;;;;;5071342;28;20016;-65
2022/09/29 11:52:55;;;;;;;10.70;8.68;;;16.10;87.40;;;;;;5078152;28;20114;-64
2022/09/29 11:55:34;;;;;;;9.57;7.82;;;16.10;87.70;;;;;;5079321;28;20627;-65
2022/09/29 11:58:14;;;;;;;12.00;9.15;;;16.10;87.70;;;;;;5078156;28;20083;-63
2022/09/29 12:01:00;;;;;;;13.93;10.20;;;16.10;87.80;;;;;;5076812;28;20037;-65
2022/09/29 12:03:49;;;;;;;12.27;9.00;;;16.20;88.00;;;;;;5075855;28;20021;-66
2022/09/29 12:06:39;;;;;;;14.95;10.45;;;16.20;88.20;;;;;;5077085;28;20118;-64
2022/09/29 12:09:18;;;;;;;14.27;10.88;;;16.30;88.30;;;;;;5074696;28;20028;-65
2022/09/29 12:12:04;;;;;;;13.13;10.00;;;16.30;88.30;;;;;;5074875;28;20043;-65
2022/09/29 12:14:38;;;;;;;14.10;10.85;;;16.30;88.30;;;;;;5076939;28;20074;-65
2022/09/29 12:17:15;;;;;;;14.38;11.27;;;16.30;88.20;;;;;;5075949;28;20511;-65
2022/09/29 12:19:43;;;;;;;13.35;11.00;;;16.30;88.30;;;;;;5083316;28;20267;-63
2022/09/29 12:22:14;;;;;;;14.32;10.75;;;16.30;88.60;;;;;;5085083;28;20035;-64
2022/09/29 12:24:45;;;;;;;13.77;10.48;;;16.30;88.80;;;;;;5081105;28;20028;-64
2022/09/29 12:27:39;;;;;;;16.52;12.00;;;16.30;89.10;;;;;;5078987;28;20029;-65
2022/09/29 12:30:27;;;;;;;15.02;11.10;;;16.30;89.10;;;;;;5083903;28;20029;-66
2022/09/29 12:32:59;;;;;;;13.27;10.30;;;16.40;89.40;;;;;;5084839;28;20023;-64
2022/09/29 12:35:48;;;;;;;15.20;11.98;;;16.50;89.70;;;;;;5083926;28;20054;-63
2022/09/29 12:38:38;;;;;;;13.75;10.15;;;16.50;89.70;;;;;;5073922;28;20393;-65
2022/09/29 12:41:13;;;;;;;13.50;9.98;;;16.60;89.80;;;;;;5079249;28;21117;-65
2022/09/29 12:43:58;;;;;;;14.65;10.45;;;16.60;89.80;;;;;;5078070;28;20028;-66
2022/09/29 12:46:41;;;;;;;14.07;9.90;;;16.70;89.60;;;;;;5080775;28;20016;-65
2022/09/29 12:49:12;;;;;;;13.68;9.88;;;16.70;89.80;;;;;;5079887;28;20025;-65
2022/09/29 12:51:45;;;;;;;13.48;9.40;;;16.80;89.80;;;;;;5084635;28;20029;-66
2022/09/29 12:54:20;;;;;;;14.73;10.95;;;16.80;89.60;;;;;;5081163;28;20025;-66
2022/09/29 12:56:59;;;;;;;13.77;9.23;;;16.90;89.30;;;;;;5082149;28;20035;-65
2022/09/29 12:59:36;;;;;;;15.65;10.18;;;16.90;89.30;;;;;;5081808;28;20510;-63
2022/09/29 13:02:26;;;;;;;13.63;9.55;;;16.90;89.40;;;;;;5079162;28;20020;-66
2022/09/29 13:05:01;;;;;;;12.38;9.02;;;16.90;89.30;;;;;;5072970;28;20021;-65
2022/09/29 13:08:13;;;;;;;13.18;9.73;;;16.90;89.70;;;;;;5079861;28;20029;-64
2022/09/29 13:10:47;;;;;;;;;;;16.90;89.00;;;;;;5080299;28;20745;-66
2022/09/29 13:13:45;;;;;;;11.02;8.13;;;16.90;89.10;;;;;;5081407;28;19958;-61